Time;durP1;ratioP1;P1;durP2;ratioP2;P2;SDS_P1;SDS_P2;PMS_P1;PMS_P2;Temp;Humidity;BMP_temperature;BMP_pressure;BME280_temperature;BME280_humidity;BME280_pressure;Samples;Min_cycle;Max_cycle;Signal;HPM_P1;HPM_P2
2022/05/19 00:01:06;;;;;;;22.13;18.92;;;17.50;99.90;;;;;;5031985;28;20127;-64
2022/05/19 00:03:34;;;;;;;22.85;18.70;;;17.40;99.90;;;;;;5033778;28;20477;-64
2022/05/19 00:06:00;;;;;;;25.25;19.98;;;17.50;99.90;;;;;;5030448;28;20489;-64
2022/05/19 00:08:27;;;;;;;21.67;19.13;;;17.50;99.90;;;;;;5019716;28;20490;-64
2022/05/19 00:10:57;;;;;;;23.17;19.40;;;17.40;99.90;;;;;;5030582;28;20049;-64
2022/05/19 00:13:24;;;;;;;24.67;20.05;;;17.40;99.90;;;;;;5032221;28;20049;-65
2022/05/19 00:15:50;;;;;;;23.75;20.48;;;17.10;99.90;;;;;;5030648;28;20061;-64
2022/05/19 00:18:15;;;;;;;24.77;18.60;;;17.40;99.90;;;;;;5032610;28;20037;-64
2022/05/19 00:20:41;;;;;;;22.35;19.38;;;17.40;99.90;;;;;;5030736;28;20482;-64
2022/05/19 00:23:06;;;;;;;23.55;20.33;;;17.40;99.90;;;;;;5030809;28;20049;-65
2022/05/19 00:25:32;;;;;;;20.55;18.35;;;17.40;99.90;;;;;;5030672;28;20041;-64
2022/05/19 00:27:58;;;;;;;21.77;19.23;;;17.30;99.90;;;;;;5030809;28;20111;-64
2022/05/19 00:30:23;;;;;;;21.92;18.90;;;17.20;99.90;;;;;;5031765;28;20138;-65
2022/05/19 00:32:49;;;;;;;21.13;18.88;;;17.20;99.90;;;;;;5030118;28;20421;-64
2022/05/19 00:35:15;;;;;;;22.95;18.52;;;17.20;99.90;;;;;;5031798;28;20175;-66
2022/05/19 00:37:41;;;;;;;23.05;18.13;;;17.10;99.90;;;;;;5032276;28;20057;-64
2022/05/19 00:40:08;;;;;;;23.15;18.67;;;17.00;99.90;;;;;;5015202;28;20049;-64
2022/05/19 00:42:43;;;;;;;22.95;19.20;;;17.00;99.90;;;;;;5030188;28;20053;-64
2022/05/19 00:45:10;;;;;;;27.63;20.15;;;17.00;99.90;;;;;;5030769;28;20073;-64
2022/05/19 00:47:47;;;;;;;21.92;18.17;;;16.90;99.90;;;;;;5030323;28;20069;-65
2022/05/19 00:50:29;;;;;;;26.85;18.60;;;16.80;99.90;;;;;;5032395;28;20124;-65
2022/05/19 00:53:04;;;;;;;21.60;18.48;;;16.80;99.90;;;;;;5031947;28;20497;-63
2022/05/19 00:55:37;;;;;;;22.20;18.63;;;16.70;99.90;;;;;;5032116;28;20115;-66
2022/05/19 00:58:10;;;;;;;24.80;19.73;;;16.60;99.90;;;;;;5030527;28;20053;-64
2022/05/19 01:00:36;;;;;;;25.05;20.00;;;16.60;99.90;;;;;;5032789;28;20421;-64
2022/05/19 01:03:02;;;;;;;22.67;18.73;;;16.60;99.90;;;;;;5031736;28;20045;-64
2022/05/19 01:05:40;;;;;;;23.50;19.23;;;16.20;99.90;;;;;;5030585;28;20459;-64
2022/05/19 01:08:38;;;;;;;24.00;19.23;;;16.50;99.90;;;;;;5030144;28;20064;-64
2022/05/19 01:11:05;;;;;;;28.23;20.65;;;16.30;99.90;;;;;;5026265;28;20949;-66
2022/05/19 01:13:31;;;;;;;22.13;19.75;;;16.50;99.90;;;;;;5029806;28;20064;-64
2022/05/19 01:15:59;;;;;;;24.67;21.10;;;16.50;99.90;;;;;;5029320;28;20073;-63
2022/05/19 01:18:27;;;;;;;26.95;21.58;;;16.50;99.90;;;;;;5029186;28;20535;-64
2022/05/19 01:20:53;;;;;;;22.48;20.05;;;16.40;99.90;;;;;;5031323;28;20060;-65
2022/05/19 01:23:31;;;;;;;25.98;22.42;;;16.40;99.90;;;;;;5030509;28;20062;-64
2022/05/19 01:26:16;;;;;;;26.20;22.17;;;16.40;99.90;;;;;;5010869;28;20049;-64
2022/05/19 01:28:43;;;;;;;28.45;23.15;;;16.30;99.90;;;;;;5031301;28;20057;-65
2022/05/19 01:31:45;;;;;;;26.88;22.77;;;16.30;99.90;;;;;;5029219;28;20053;-64
2022/05/19 01:34:11;;;;;;;27.13;23.73;;;16.30;99.90;;;;;;5032495;28;20132;-63
2022/05/19 01:36:37;;;;;;;30.48;25.23;;;16.30;99.90;;;;;;5030469;28;20411;-64
2022/05/19 01:39:12;;;;;;;32.17;25.02;;;16.30;99.90;;;;;;5030012;28;20426;-64
2022/05/19 01:41:50;;;;;;;29.70;24.27;;;16.20;99.90;;;;;;5030313;28;20053;-65
2022/05/19 01:44:32;;;;;;;30.35;25.65;;;16.20;99.90;;;;;;5030393;28;20107;-65
2022/05/19 01:47:13;;;;;;;30.90;25.38;;;16.20;99.90;;;;;;5031670;28;20061;-64
2022/05/19 01:49:45;;;;;;;30.08;25.02;;;16.20;99.90;;;;;;5031631;28;20053;-64
2022/05/19 01:52:23;;;;;;;29.88;26.27;;;16.20;99.90;;;;;;5031031;28;20490;-64
2022/05/19 01:54:54;;;;;;;34.47;27.02;;;16.20;99.90;;;;;;5029919;28;20049;-64
2022/05/19 01:57:31;;;;;;;34.13;29.00;;;16.10;99.90;;;;;;5031118;28;20484;-65
2022/05/19 02:00:03;;;;;;;33.83;27.95;;;16.10;99.90;;;;;;5031434;28;20144;-65
2022/05/19 02:02:50;;;;;;;33.20;29.58;;;16.10;99.90;;;;;;5030903;28;20056;-65
2022/05/19 02:05:43;;;;;;;35.33;29.58;;;16.10;99.90;;;;;;5029696;28;20474;-64
2022/05/19 02:08:16;;;;;;;38.58;32.00;;;16.00;99.90;;;;;;5029137;28;20060;-65
2022/05/19 02:10:46;;;;;;;38.78;31.88;;;16.00;99.90;;;;;;5042969;28;20062;-65
2022/05/19 02:13:12;;;;;;;42.83;33.72;;;16.00;99.90;;;;;;5015908;28;20064;-64
2022/05/19 02:15:41;;;;;;;41.70;34.05;;;16.00;99.90;;;;;;5015545;28;20062;-65
2022/05/19 02:18:07;;;;;;;41.92;34.15;;;16.20;99.90;;;;;;5018837;28;20076;-65
2022/05/19 02:20:34;;;;;;;45.28;36.22;;;16.00;99.90;;;;;;5035322;28;20053;-65
2022/05/19 02:23:00;;;;;;;44.65;35.85;;;16.00;99.90;;;;;;5035325;28;20393;-65
2022/05/19 02:25:45;;;;;;;42.67;35.55;;;15.90;99.90;;;;;;5034557;28;20084;-64
2022/05/19 02:28:21;;;;;;;45.38;36.33;;;15.90;99.90;;;;;;5032182;28;20048;-64
2022/05/19 02:30:47;;;;;;;46.17;38.25;;;15.90;99.90;;;;;;5023860;28;20489;-64
2022/05/19 02:33:14;;;;;;;45.22;37.65;;;15.80;99.90;;;;;;5034518;28;20184;-64
2022/05/19 02:35:40;;;;;;;42.40;36.75;;;15.80;99.90;;;;;;5033676;28;20053;-65
2022/05/19 02:38:06;;;;;;;44.55;38.40;;;15.80;99.90;;;;;;5034581;28;20057;-64
2022/05/19 02:40:35;;;;;;;50.58;39.38;;;15.80;99.90;;;;;;5033285;28;20130;-65
2022/05/19 02:43:01;;;;;;;47.45;38.78;;;15.80;99.90;;;;;;5031236;28;20483;-64
2022/05/19 02:45:27;;;;;;;50.58;40.05;;;15.80;99.90;;;;;;5034397;28;20041;-65
2022/05/19 02:47:53;;;;;;;47.72;38.72;;;15.70;99.90;;;;;;5034642;28;20405;-65
2022/05/19 02:50:20;;;;;;;44.30;37.15;;;15.80;99.90;;;;;;5033490;28;20049;-64
2022/05/19 02:52:46;;;;;;;51.95;41.50;;;15.80;99.90;;;;;;5032396;28;20061;-64
2022/05/19 02:55:13;;;;;;;47.95;40.60;;;15.80;99.90;;;;;;5033512;28;20148;-64
2022/05/19 02:57:39;;;;;;;52.15;42.38;;;15.80;99.90;;;;;;5032284;28;20053;-64
2022/05/19 03:00:07;;;;;;;52.83;41.67;;;15.80;99.90;;;;;;5033878;28;20135;-65
2022/05/19 03:02:33;;;;;;;52.53;41.92;;;15.80;99.90;;;;;;5030089;28;20131;-64
2022/05/19 03:04:59;;;;;;;47.85;40.80;;;15.80;99.90;;;;;;5033625;28;20459;-65
2022/05/19 03:07:24;;;;;;;51.67;43.22;;;15.80;99.90;;;;;;5033182;28;20077;-65
2022/05/19 03:09:50;;;;;;;48.40;40.28;;;15.80;99.90;;;;;;5032674;28;20057;-66
2022/05/19 03:12:16;;;;;;;47.30;41.38;;;15.80;99.90;;;;;;5032437;28;20124;-65
2022/05/19 03:14:42;;;;;;;48.78;40.33;;;15.80;99.90;;;;;;5033295;28;20045;-64
2022/05/19 03:17:09;;;;;;;48.20;41.05;;;15.80;99.90;;;;;;5034356;28;20100;-65
2022/05/19 03:19:36;;;;;;;52.72;42.47;;;15.80;99.90;;;;;;5047691;28;20110;-65
2022/05/19 03:22:03;;;;;;;48.97;42.38;;;15.80;99.90;;;;;;5032418;28;20060;-64
2022/05/19 03:24:29;;;;;;;51.08;41.03;;;15.80;99.90;;;;;;5034454;28;20061;-65
2022/05/19 03:26:55;;;;;;;47.10;39.88;;;15.80;99.90;;;;;;5033049;28;20061;-64
2022/05/19 03:29:20;;;;;;;47.20;40.22;;;15.80;99.90;;;;;;5033172;28;20046;-66
2022/05/19 03:31:46;;;;;;;52.95;41.40;;;15.80;99.90;;;;;;5014832;28;20457;-64
2022/05/19 03:34:12;;;;;;;46.58;38.50;;;15.90;99.90;;;;;;5031202;28;20056;-65
2022/05/19 03:36:37;;;;;;;47.50;39.45;;;15.90;99.90;;;;;;5032632;28;20076;-64
2022/05/19 03:39:03;;;;;;;53.40;42.40;;;15.90;99.90;;;;;;5032847;28;20486;-64
2022/05/19 03:41:29;;;;;;;49.22;40.15;;;15.90;99.90;;;;;;5032769;28;20057;-65
2022/05/19 03:43:54;;;;;;;46.67;38.75;;;15.90;99.90;;;;;;5031534;28;20132;-64
2022/05/19 03:46:20;;;;;;;49.55;39.35;;;16.00;99.90;;;;;;5033606;28;20490;-65
2022/05/19 03:48:45;;;;;;;46.00;37.50;;;16.00;99.90;;;;;;5033030;28;20494;-65
2022/05/19 03:51:23;;;;;;;53.10;41.95;;;16.00;99.90;;;;;;5033109;28;20107;-64
2022/05/19 03:53:50;;;;;;;51.88;41.22;;;16.00;99.90;;;;;;5030545;28;20172;-64
2022/05/19 03:56:18;;;;;;;42.08;35.50;;;15.90;99.90;;;;;;5033212;28;20045;-64
2022/05/19 03:58:43;;;;;;;49.97;42.45;;;15.90;99.90;;;;;;5031943;28;20053;-63
2022/05/19 04:01:09;;;;;;;44.42;38.28;;;15.90;99.90;;;;;;5033565;28;20107;-64
2022/05/19 04:03:35;;;;;;;51.47;41.72;;;16.00;99.90;;;;;;5031561;28;20045;-63
2022/05/19 04:06:01;;;;;;;52.33;41.83;;;15.90;99.90;;;;;;5033601;28;20057;-65
2022/05/19 04:08:26;;;;;;;50.20;40.03;;;15.90;99.90;;;;;;5032332;28;20053;-64
2022/05/19 04:10:52;;;;;;;47.38;40.83;;;16.00;99.90;;;;;;5032151;28;20049;-64
2022/05/19 04:13:18;;;;;;;50.22;42.40;;;15.90;99.90;;;;;;5030188;28;20057;-65
2022/05/19 04:15:43;;;;;;;52.08;41.17;;;16.00;99.90;;;;;;5033047;28;20085;-64
2022/05/19 04:18:09;;;;;;;49.95;42.03;;;16.00;99.90;;;;;;5031911;28;20088;-65
2022/05/19 04:20:35;;;;;;;47.53;39.28;;;16.00;99.90;;;;;;5033486;28;20057;-64
2022/05/19 04:23:01;;;;;;;45.13;38.85;;;16.00;99.90;;;;;;5031161;28;20059;-66
2022/05/19 04:25:29;;;;;;;48.10;40.35;;;16.10;99.90;;;;;;5030855;28;20045;-66
2022/05/19 04:27:55;;;;;;;51.65;41.90;;;16.10;99.90;;;;;;5032899;28;20053;-64
2022/05/19 04:30:20;;;;;;;46.53;38.22;;;16.20;99.90;;;;;;5032912;28;20063;-64
2022/05/19 04:32:47;;;;;;;54.05;42.47;;;16.20;99.90;;;;;;5029017;28;20061;-65
2022/05/19 04:35:14;;;;;;;49.20;39.85;;;16.30;99.90;;;;;;5032630;28;20136;-64
2022/05/19 04:37:40;;;;;;;50.78;40.25;;;16.40;99.90;;;;;;5031852;28;20129;-64
2022/05/19 04:40:06;;;;;;;46.25;38.17;;;16.50;99.90;;;;;;5032141;28;20224;-64
2022/05/19 04:42:32;;;;;;;43.42;37.35;;;16.60;99.90;;;;;;5029006;28;20079;-64
2022/05/19 04:44:58;;;;;;;46.72;40.47;;;16.70;99.90;;;;;;5027869;28;20406;-64
2022/05/19 04:47:24;;;;;;;48.55;39.88;;;16.80;99.90;;;;;;5030535;28;20405;-65
2022/05/19 04:49:50;;;;;;;46.85;40.08;;;16.80;99.90;;;;;;5030948;28;20052;-66
2022/05/19 04:52:15;;;;;;;44.13;36.85;;;16.80;99.90;;;;;;5032055;28;20394;-64
2022/05/19 04:54:41;;;;;;;44.90;38.67;;;16.80;99.90;;;;;;5032786;28;20140;-65
2022/05/19 04:57:07;;;;;;;43.08;36.90;;;16.90;99.90;;;;;;5031778;28;20143;-65
2022/05/19 04:59:38;;;;;;;46.50;38.60;;;16.90;99.90;;;;;;5030503;28;20478;-65
2022/05/19 05:02:04;;;;;;;42.53;36.42;;;17.00;99.90;;;;;;5030956;28;20497;-64
2022/05/19 05:04:30;;;;;;;42.17;36.50;;;17.00;99.90;;;;;;5028343;28;20146;-64
2022/05/19 05:06:56;;;;;;;45.17;37.72;;;17.10;99.90;;;;;;5030326;28;20417;-66
2022/05/19 05:09:22;;;;;;;45.42;39.08;;;17.10;99.90;;;;;;5029110;28;20053;-66
2022/05/19 05:11:48;;;;;;;42.72;34.90;;;17.20;99.90;;;;;;5032607;28;20136;-64
2022/05/19 05:14:14;;;;;;;43.92;37.63;;;17.30;99.90;;;;;;5032582;28;20107;-63
2022/05/19 05:16:40;;;;;;;41.53;36.22;;;17.40;99.90;;;;;;5028986;28;20394;-64
2022/05/19 05:19:05;;;;;;;42.58;36.05;;;17.50;99.90;;;;;;5029323;28;20053;-64
2022/05/19 05:21:31;;;;;;;41.90;34.63;;;17.60;99.90;;;;;;5047484;28;20053;-65
2022/05/19 05:23:56;;;;;;;40.30;34.53;;;17.70;99.90;;;;;;5031918;28;20053;-65
2022/05/19 05:26:22;;;;;;;38.05;31.85;;;18.00;99.90;;;;;;5029967;28;20393;-65
2022/05/19 05:28:48;;;;;;;38.67;32.15;;;17.90;99.90;;;;;;5028852;28;20050;-64
2022/05/19 05:31:14;;;;;;;35.75;31.88;;;18.00;99.90;;;;;;5031198;28;20045;-64
2022/05/19 05:33:39;;;;;;;36.95;32.42;;;18.20;99.90;;;;;;5028249;28;20106;-64
2022/05/19 05:36:05;;;;;;;34.22;30.58;;;18.50;99.90;;;;;;5029016;28;20569;-64
2022/05/19 05:38:31;;;;;;;33.45;29.88;;;18.80;99.90;;;;;;5045784;28;20120;-65
2022/05/19 05:40:58;;;;;;;31.17;27.88;;;19.40;99.90;;;;;;5029408;28;20472;-66
2022/05/19 05:43:24;;;;;;;31.17;27.92;;;20.10;99.90;;;;;;5013995;28;20045;-64
2022/05/19 05:45:51;;;;;;;29.52;25.98;;;20.80;99.90;;;;;;5034300;28;20053;-66
2022/05/19 05:48:17;;;;;;;28.02;25.05;;;21.10;99.90;;;;;;5035417;28;20532;-65
2022/05/19 05:50:43;;;;;;;25.80;23.20;;;21.60;99.90;;;;;;5031229;28;20085;-65
2022/05/19 05:53:09;;;;;;;25.52;22.92;;;22.30;99.90;;;;;;5020741;28;20147;-65
2022/05/19 05:55:37;;;;;;;23.83;21.30;;;22.80;99.90;;;;;;5032090;28;20049;-66
2022/05/19 05:58:08;;;;;;;19.90;17.90;;;23.40;99.90;;;;;;5035432;28;20401;-65
2022/05/19 06:00:33;;;;;;;20.48;18.30;;;23.60;99.90;;;;;;5034636;28;20081;-65
2022/05/19 06:02:59;;;;;;;18.98;16.98;;;23.80;99.90;;;;;;5033323;28;20091;-66
2022/05/19 06:05:24;;;;;;;18.85;16.20;;;23.60;99.90;;;;;;5030832;28;20069;-65
2022/05/19 06:07:50;;;;;;;16.15;14.55;;;23.10;99.90;;;;;;5027244;28;20057;-65
2022/05/19 06:10:16;;;;;;;17.58;14.35;;;22.80;99.90;;;;;;5033600;28;20057;-65
2022/05/19 06:12:42;;;;;;;15.30;13.70;;;22.40;99.90;;;;;;5032856;28;20113;-65
2022/05/19 06:15:11;;;;;;;14.98;11.25;;;22.20;99.90;;;;;;5034733;28;20346;-65
2022/05/19 06:17:39;;;;;;;11.70;10.55;;;22.30;99.90;;;;;;5035053;28;20482;-67
2022/05/19 06:20:10;;;;;;;13.35;10.20;;;22.50;99.90;;;;;;5033710;28;20099;-65
2022/05/19 06:22:37;;;;;;;12.00;10.05;;;22.80;99.90;;;;;;5034815;28;20060;-65
2022/05/19 06:25:04;;;;;;;9.90;8.90;;;22.80;99.90;;;;;;5035138;28;20103;-65
2022/05/19 06:27:29;;;;;;;9.63;8.63;;;22.50;99.90;;;;;;5032513;28;20056;-65
2022/05/19 06:29:55;;;;;;;10.80;8.70;;;22.40;99.90;;;;;;5033915;28;20041;-65
2022/05/19 06:32:20;;;;;;;10.70;9.70;;;22.20;99.90;;;;;;5033249;28;20115;-64
2022/05/19 06:34:46;;;;;;;10.63;9.55;;;22.20;99.90;;;;;;5035848;28;20118;-65
2022/05/19 06:37:11;;;;;;;10.88;9.23;;;22.10;99.90;;;;;;5032681;28;20151;-64
2022/05/19 06:39:37;;;;;;;10.77;9.68;;;22.20;99.90;;;;;;5031461;28;20143;-63
2022/05/19 06:42:31;;;;;;;13.23;11.13;;;22.20;99.90;;;;;;5034984;28;20402;-64
2022/05/19 06:45:16;;;;;;;13.85;10.57;;;21.60;99.90;;;;;;5022966;28;20057;-64
2022/05/19 06:47:42;;;;;;;15.93;11.02;;;21.40;99.90;;;;;;5016351;28;20060;-65
2022/05/19 06:50:11;;;;;;;11.73;10.57;;;23.00;99.90;;;;;;5033475;28;20041;-65
2022/05/19 06:53:01;;;;;;;15.13;12.02;;;22.40;99.90;;;;;;5016986;28;20041;-65
2022/05/19 06:55:31;;;;;;;11.82;10.63;;;22.20;99.90;;;;;;5033734;28;20120;-64
2022/05/19 06:57:57;;;;;;;11.15;9.95;;;22.10;99.90;;;;;;5033358;28;20058;-64
2022/05/19 07:00:24;;;;;;;13.77;10.55;;;21.90;99.90;;;;;;5034425;28;20045;-65
2022/05/19 07:02:54;;;;;;;15.48;11.23;;;21.80;99.90;;;;;;5032080;28;20057;-65
2022/05/19 07:05:24;;;;;;;13.63;10.90;;;21.70;99.90;;;;;;5031147;28;20053;-65
2022/05/19 07:07:50;;;;;;;11.82;10.63;;;21.50;99.90;;;;;;5033076;28;20065;-64
2022/05/19 07:10:19;;;;;;;12.48;10.10;;;21.60;99.90;;;;;;5033741;28;20437;-64
2022/05/19 07:12:45;;;;;;;12.15;10.15;;;21.30;99.90;;;;;;5032735;28;20042;-64
2022/05/19 07:15:13;;;;;;;9.77;8.77;;;21.20;99.90;;;;;;5033249;28;20045;-64
2022/05/19 07:17:39;;;;;;;10.75;8.40;;;21.10;99.90;;;;;;5033094;28;20157;-65
2022/05/19 07:22:50;;;;;;;16.98;7.40;;;21.20;99.90;;;;;;5032207;28;20053;-64
2022/05/19 07:25:16;;;;;;;7.70;6.72;;;21.20;99.90;;;;;;5033441;28;20524;-65
2022/05/19 07:27:42;;;;;;;9.82;7.60;;;21.30;99.90;;;;;;5034403;28;20050;-65
2022/05/19 07:30:09;;;;;;;8.98;7.63;;;21.30;99.90;;;;;;5034015;28;20059;-65
2022/05/19 07:32:35;;;;;;;9.02;8.13;;;21.20;99.90;;;;;;5033468;28;20063;-65
2022/05/19 07:35:01;;;;;;;10.75;7.70;;;21.10;99.90;;;;;;5033945;28;20498;-64
2022/05/19 07:37:27;;;;;;;10.05;8.07;;;21.10;99.90;;;;;;5032558;28;20129;-64
2022/05/19 07:39:53;;;;;;;10.55;8.55;;;21.10;99.90;;;;;;5032723;28;20498;-65
2022/05/19 07:42:20;;;;;;;11.52;7.78;;;21.00;99.90;;;;;;5033116;28;20049;-65
2022/05/19 07:44:46;;;;;;;9.57;7.80;;;20.90;99.90;;;;;;5034087;28;20072;-65
2022/05/19 07:47:14;;;;;;;13.73;9.98;;;20.90;99.90;;;;;;5031062;28;20042;-66
2022/05/19 07:49:40;;;;;;;12.13;10.82;;;20.80;99.90;;;;;;5033171;28;20042;-65
2022/05/19 07:52:07;;;;;;;14.85;12.23;;;20.60;99.90;;;;;;5033806;28;20062;-66
2022/05/19 07:54:33;;;;;;;14.68;13.18;;;20.60;99.90;;;;;;5032757;28;20049;-66
2022/05/19 07:56:59;;;;;;;16.02;13.75;;;20.50;99.90;;;;;;5029819;28;20061;-66
2022/05/19 07:59:26;;;;;;;14.90;13.40;;;20.40;99.90;;;;;;5033930;28;20053;-65
2022/05/19 08:01:52;;;;;;;17.48;13.52;;;20.40;99.90;;;;;;5031493;28;20069;-64
2022/05/19 08:04:18;;;;;;;15.13;13.52;;;20.30;99.90;;;;;;5033770;28;20489;-65
2022/05/19 08:06:44;;;;;;;17.80;14.60;;;20.30;99.90;;;;;;5031420;28;20056;-64
2022/05/19 08:11:55;;;;;;;16.13;14.52;;;20.30;99.90;;;;;;5033217;28;20502;-65
2022/05/19 08:17:12;;;;;;;16.73;14.73;;;20.00;99.90;;;;;;5031428;28;20119;-65
2022/05/19 08:19:38;;;;;;;17.88;15.02;;;19.80;99.90;;;;;;5032801;28;20053;-65
2022/05/19 08:22:04;;;;;;;18.10;15.68;;;19.70;99.90;;;;;;5032921;28;20136;-66
2022/05/19 08:24:30;;;;;;;17.15;15.35;;;19.60;99.90;;;;;;5030945;28;20169;-65
2022/05/19 08:26:57;;;;;;;19.63;16.60;;;19.50;99.90;;;;;;5032977;28;20292;-65
2022/05/19 08:29:23;;;;;;;16.60;14.77;;;19.50;99.90;;;;;;5028305;28;20057;-66
2022/05/19 08:31:49;;;;;;;16.13;14.52;;;19.50;99.90;;;;;;5031236;28;20045;-64
2022/05/19 08:34:15;;;;;;;17.63;15.48;;;19.50;99.90;;;;;;5021774;28;20061;-66
2022/05/19 08:36:44;;;;;;;16.52;14.82;;;19.60;99.90;;;;;;5012294;28;20050;-65
2022/05/19 08:39:11;;;;;;;17.65;15.20;;;19.70;99.90;;;;;;5029196;28;20053;-65
2022/05/19 08:41:45;;;;;;;18.23;14.80;;;19.90;99.90;;;;;;5027392;28;20486;-65
2022/05/19 08:44:19;;;;;;;16.35;14.40;;;19.90;99.90;;;;;;5031218;28;20095;-65
2022/05/19 08:46:49;;;;;;;16.73;14.35;;;19.90;99.90;;;;;;5031050;28;20060;-66
2022/05/19 08:49:22;;;;;;;17.45;13.57;;;20.10;99.90;;;;;;5029823;28;20054;-65
2022/05/19 08:52:09;;;;;;;15.40;13.80;;;20.30;99.90;;;;;;5031002;28;20486;-66
2022/05/19 08:54:38;;;;;;;14.77;13.13;;;20.50;99.90;;;;;;5031168;28;20060;-66
2022/05/19 08:57:24;;;;;;;15.73;12.70;;;20.70;99.90;;;;;;5030503;28;20128;-67
2022/05/19 08:59:50;;;;;;;15.13;13.73;;;20.80;99.90;;;;;;5030031;28;20132;-66
2022/05/19 09:02:48;;;;;;;17.63;13.98;;;20.80;99.90;;;;;;5030058;28;20541;-66
2022/05/19 09:05:35;;;;;;;16.20;14.52;;;20.80;99.90;;;;;;5031147;28;20053;-66
2022/05/19 09:08:16;;;;;;;16.02;14.10;;;20.80;99.90;;;;;;5032839;28;20335;-67
2022/05/19 09:11:12;;;;;;;16.52;14.77;;;21.00;99.90;;;;;;5031397;28;20045;-67
2022/05/19 09:13:59;;;;;;;14.85;13.45;;;21.10;99.90;;;;;;5012674;28;20056;-66
2022/05/19 09:16:29;;;;;;;16.58;13.70;;;21.30;99.90;;;;;;5011155;28;20132;-67
2022/05/19 09:19:07;;;;;;;15.55;13.85;;;21.60;99.90;;;;;;5026312;28;20477;-66
2022/05/19 09:21:34;;;;;;;14.20;12.80;;;21.70;99.90;;;;;;5035636;28;20045;-67
2022/05/19 09:24:00;;;;;;;13.90;12.55;;;21.80;99.90;;;;;;5036655;28;20167;-67
2022/05/19 09:26:46;;;;;;;13.85;12.48;;;22.00;99.90;;;;;;5035222;28;20061;-66
2022/05/19 09:29:15;;;;;;;15.23;12.70;;;22.00;99.90;;;;;;5036360;28;20053;-67
2022/05/19 09:31:49;;;;;;;17.88;13.43;;;22.30;99.90;;;;;;5035273;28;20061;-66
2022/05/19 09:34:14;;;;;;;14.10;12.70;;;22.40;99.90;;;;;;5035330;28;20413;-67
2022/05/19 09:36:54;;;;;;;14.02;12.52;;;22.50;99.90;;;;;;5036486;28;20128;-66
2022/05/19 09:39:20;;;;;;;14.00;11.60;;;22.80;99.90;;;;;;5036425;28;20458;-67
2022/05/19 09:41:53;;;;;;;13.00;11.70;;;23.00;99.90;;;;;;5034940;28;20053;-67
2022/05/19 09:44:25;;;;;;;13.25;11.93;;;23.10;99.90;;;;;;5035967;28;20041;-66
2022/05/19 09:46:51;;;;;;;14.68;12.00;;;23.20;99.90;;;;;;5033842;28;20089;-66
2022/05/19 09:49:28;;;;;;;15.43;11.20;;;23.20;99.90;;;;;;5033995;28;20056;-66
2022/05/19 09:52:03;;;;;;;14.00;12.45;;;23.30;99.90;;;;;;5034249;28;20356;-66
2022/05/19 09:54:34;;;;;;;15.20;12.15;;;23.50;99.90;;;;;;5033788;28;20431;-67
2022/05/19 09:57:36;;;;;;;14.50;12.68;;;23.60;99.90;;;;;;5034750;28;20046;-65
2022/05/19 10:00:09;;;;;;;14.88;12.80;;;23.60;99.90;;;;;;5016297;28;20050;-66
2022/05/19 10:02:46;;;;;;;15.60;12.80;;;23.60;99.90;;;;;;5033417;28;20409;-66
2022/05/19 10:05:23;;;;;;;14.90;11.52;;;23.70;99.90;;;;;;5027418;28;20081;-66
2022/05/19 10:07:51;;;;;;;13.77;12.38;;;23.80;99.90;;;;;;5032078;28;20149;-66
2022/05/19 10:10:31;;;;;;;13.88;12.40;;;23.90;99.90;;;;;;5033858;28;20041;-66
2022/05/19 10:13:09;;;;;;;14.43;13.02;;;24.00;99.90;;;;;;5035722;28;20053;-66
2022/05/19 10:15:49;;;;;;;14.45;12.98;;;23.90;99.90;;;;;;5029839;28;20436;-66
2022/05/19 10:18:26;;;;;;;12.40;11.10;;;24.00;99.90;;;;;;5031556;28;20053;-66
2022/05/19 10:21:15;;;;;;;12.32;11.10;;;24.10;99.90;;;;;;5030652;28;20103;-67
2022/05/19 10:23:59;;;;;;;12.90;11.32;;;24.20;99.90;;;;;;5030922;28;20056;-66
2022/05/19 10:26:27;;;;;;;13.45;12.15;;;24.20;99.90;;;;;;5032530;28;20136;-67
2022/05/19 10:32:56;;;;;;;13.70;12.27;;;24.30;99.90;;;;;;5010501;28;20046;-66
2022/05/19 10:35:33;;;;;;;13.32;12.00;;;24.30;99.90;;;;;;5028896;28;20433;-67
2022/05/19 10:38:16;;;;;;;13.60;12.20;;;24.40;99.90;;;;;;5031663;28;20066;-66
2022/05/19 10:41:03;;;;;;;13.82;12.43;;;24.50;99.90;;;;;;5035322;28;20129;-67
2022/05/19 10:43:59;;;;;;;12.68;11.43;;;24.60;99.90;;;;;;5035584;28;20061;-66
2022/05/19 10:46:37;;;;;;;12.32;11.13;;;24.70;99.90;;;;;;5034186;28;20041;-66
2022/05/19 10:49:22;;;;;;;11.30;10.20;;;24.90;99.90;;;;;;5033960;28;20379;-66
2022/05/19 10:51:51;;;;;;;13.98;12.18;;;25.00;99.90;;;;;;5035258;28;20061;-66
2022/05/19 10:54:25;;;;;;;11.32;10.13;;;25.20;99.90;;;;;;5033610;28;20063;-66
2022/05/19 10:57:14;;;;;;;11.90;8.77;;;25.10;99.90;;;;;;5033493;28;20061;-65
2022/05/19 11:00:01;;;;;;;8.75;7.88;;;25.10;99.90;;;;;;5031314;28;20060;-66
2022/05/19 11:02:54;;;;;;;8.32;7.53;;;25.20;99.90;;;;;;5033215;28;20062;-67
2022/05/19 11:05:32;;;;;;;8.43;7.55;;;25.30;99.90;;;;;;5011113;28;20053;-67
2022/05/19 11:08:22;;;;;;;7.53;6.72;;;25.50;99.90;;;;;;5034813;28;20061;-67
2022/05/19 11:11:12;;;;;;;8.05;7.20;;;25.90;99.90;;;;;;5035106;28;20089;-66
2022/05/19 11:14:04;;;;;;;7.70;6.57;;;25.90;99.90;;;;;;5033680;28;20049;-66
2022/05/19 11:16:57;;;;;;;7.65;5.68;;;26.00;99.90;;;;;;5033402;28;20324;-66
2022/05/19 11:19:30;;;;;;;7.80;5.78;;;26.10;99.90;;;;;;5032183;28;20394;-67
2022/05/19 11:22:11;;;;;;;7.20;6.47;;;26.50;99.90;;;;;;5033697;28;20099;-65
2022/05/19 11:27:52;;;;;;;6.30;5.63;;;26.60;99.90;;;;;;5032842;28;20124;-64
2022/05/19 11:30:22;;;;;;;5.55;4.65;;;26.30;99.90;;;;;;5033625;28;20053;-64
2022/05/19 11:32:56;;;;;;;5.20;4.10;;;26.30;99.90;;;;;;5031333;28;20061;-64
2022/05/19 11:35:38;;;;;;;6.35;3.92;;;26.30;99.90;;;;;;5034366;28;20065;-64
2022/05/19 11:38:30;;;;;;;5.15;4.63;;;26.60;99.90;;;;;;5032776;28;20080;-65
2022/05/19 11:41:08;;;;;;;5.07;4.57;;;26.60;99.90;;;;;;5033367;28;20064;-64
2022/05/19 11:43:57;;;;;;;5.47;4.13;;;26.40;99.90;;;;;;5033626;28;20049;-66
2022/05/19 11:46:31;;;;;;;4.60;4.13;;;26.70;99.90;;;;;;5032593;28;20128;-66
2022/05/19 11:55:18;;;;;;;3.83;3.53;;;27.40;99.90;;;;;;5033461;28;20121;-65
2022/05/19 11:58:04;;;;;;;3.15;2.55;;;27.20;98.50;;;;;;5025617;28;20045;-64
2022/05/19 12:00:32;;;;;;;3.25;2.80;;;27.00;99.10;;;;;;5030989;28;20046;-65
2022/05/19 12:03:23;;;;;;;3.80;2.65;;;27.20;99.90;;;;;;5032146;28;20111;-64
2022/05/19 12:05:58;;;;;;;6.00;3.13;;;27.00;94.60;;;;;;5032680;28;20124;-66
2022/05/19 12:08:34;;;;;;;3.40;3.10;;;26.80;92.00;;;;;;5033200;28;20115;-66
2022/05/19 12:11:24;;;;;;;4.32;2.95;;;26.60;96.50;;;;;;5033509;28;20145;-66
2022/05/19 12:14:20;;;;;;;6.72;4.47;;;26.70;98.40;;;;;;5030944;28;20056;-64
2022/05/19 12:17:01;;;;;;;3.58;3.28;;;26.90;92.30;;;;;;5027513;28;20045;-67
2022/05/19 12:19:42;;;;;;;5.67;3.30;;;27.00;98.80;;;;;;5030041;28;20410;-65
2022/05/19 12:22:47;;;;;;;4.13;3.57;;;26.90;99.90;;;;;;5032032;28;20037;-65
2022/05/19 12:25:22;;;;;;;6.60;4.15;;;27.00;99.90;;;;;;5030314;28;20386;-65
2022/05/19 12:27:57;;;;;;;4.20;3.80;;;26.90;99.90;;;;;;5031808;28;20132;-64
2022/05/19 12:33:32;;;;;;;72.70;28.50;;;26.60;99.90;;;;;;5031138;28;20050;-64
2022/05/19 12:36:12;;;;;;;10.07;5.35;;;26.40;99.90;;;;;;5033056;28;20053;-64
2022/05/19 12:38:42;;;;;;;5.40;4.23;;;26.30;99.90;;;;;;5030785;28;20053;-64
2022/05/19 12:41:33;;;;;;;4.30;3.90;;;26.30;99.90;;;;;;5032112;28;20474;-64
2022/05/19 12:44:32;;;;;;;6.13;3.88;;;26.20;99.90;;;;;;5029711;28;20489;-64
2022/05/19 12:47:04;;;;;;;4.25;3.85;;;26.00;99.90;;;;;;5030884;28;20052;-64
2022/05/19 12:49:31;;;;;;;4.30;3.75;;;25.80;99.90;;;;;;5031537;28;20049;-64
2022/05/19 12:52:06;;;;;;;4.10;3.25;;;25.80;99.90;;;;;;5032747;28;20045;-63
2022/05/19 12:54:33;;;;;;;3.70;3.40;;;25.50;99.90;;;;;;5032905;28;20140;-66
2022/05/19 12:57:08;;;;;;;4.53;3.70;;;25.50;99.90;;;;;;5030648;28;20085;-66
2022/05/19 12:59:43;;;;;;;5.55;3.58;;;24.80;99.90;;;;;;5032344;28;20107;-65
2022/05/19 13:02:32;;;;;;;3.47;3.17;;;25.00;99.90;;;;;;5031437;28;20057;-66
2022/05/19 13:05:04;;;;;;;7.07;3.97;;;24.90;99.90;;;;;;5033332;28;20041;-64
2022/05/19 13:07:46;;;;;;;4.63;3.88;;;24.60;99.90;;;;;;5031111;28;20444;-65
2022/05/19 13:10:20;;;;;;;6.78;3.50;;;24.40;99.90;;;;;;5033460;28;20053;-64
2022/05/19 13:12:51;;;;;;;3.83;3.35;;;24.30;99.90;;;;;;5032906;28;20080;-66
2022/05/19 13:15:26;;;;;;;;;;;23.90;99.90;;;;;;5031197;28;20053;-65
2022/05/19 13:17:53;;;;;;;6.60;4.40;;;24.00;99.90;;;;;;5031690;28;20228;-66